Terminal Aerodrome Forecast
Issued by NWS

Home | Current Version | Previous Version | Graphics & Text | Print | Product List | Glossary On
Versions: 1 2 3 4 5 6 7 8 9 10 11 12 13 14 15 16 17 18 19 20 21 22 23 24
000
FTUS43 KGRB 211100
TAFAUW
TAF
KAUW 211123Z 2112/2212 02008KT P6SM BKN020
     FM211600 06006KT P6SM SCT020
     FM211900 08006KT P6SM SKC
     FM220000 VRB03KT P6SM SKC=

USA.gov is the U.S. government's official web portal to all federal, state and local government web resources and services.